Time;durP1;ratioP1;P1;durP2;ratioP2;P2;SDS_P1;SDS_P2;PMS_P1;PMS_P2;Temp;Humidity;BMP_temperature;BMP_pressure;BME280_temperature;BME280_humidity;BME280_pressure;Samples;Min_cycle;Max_cycle;Signal;HPM_P1;HPM_P2
2023/10/16 00:00:43;;;;;;;1999.90;999.90;;;7.80;99.90;;;;;;5026347;28;20108;-64
2023/10/16 00:03:12;;;;;;;1999.90;999.90;;;7.90;99.90;;;;;;5036369;28;20022;-64
2023/10/16 00:05:45;;;;;;;1999.90;999.90;;;7.90;99.90;;;;;;5036199;28;20029;-64
2023/10/16 00:08:16;;;;;;;1999.90;999.90;;;7.90;99.90;;;;;;5034029;28;20060;-64
2023/10/16 00:11:06;;;;;;;1999.90;999.90;;;7.90;99.90;;;;;;5027588;28;20028;-64
2023/10/16 00:13:36;;;;;;;1999.90;999.90;;;7.90;99.90;;;;;;5043508;28;20332;-64
2023/10/16 00:16:03;;;;;;;1999.90;999.90;;;7.90;99.90;;;;;;5044284;28;20032;-64
2023/10/16 00:18:35;;;;;;;1999.90;999.90;;;7.90;99.90;;;;;;5035393;28;20025;-64
2023/10/16 00:21:05;;;;;;;1999.90;999.90;;;7.90;99.90;;;;;;5035044;28;20048;-64
2023/10/16 00:23:37;;;;;;;1999.90;999.90;;;7.80;99.90;;;;;;5034693;28;20033;-72
2023/10/16 00:26:07;;;;;;;1999.90;999.90;;;7.80;99.90;;;;;;5029890;28;20033;-64
2023/10/16 00:28:34;;;;;;;1999.90;999.90;;;7.80;99.90;;;;;;5031053;28;20061;-65
2023/10/16 00:31:00;;;;;;;1999.90;999.90;;;7.80;99.90;;;;;;5036697;28;20329;-64
2023/10/16 00:33:26;;;;;;;1999.90;999.90;;;7.80;99.90;;;;;;5018023;28;20036;-78
2023/10/16 00:35:52;;;;;;;1999.90;999.90;;;7.80;99.90;;;;;;5035837;28;20401;-64
2023/10/16 00:38:19;;;;;;;1999.90;999.90;;;7.80;99.90;;;;;;5035077;28;20112;-64
2023/10/16 00:43:34;;;;;;;1999.90;999.90;;;7.80;99.90;;;;;;5035820;28;20143;-80
2023/10/16 00:46:08;;;;;;;1999.90;999.90;;;7.80;99.90;;;;;;5036248;28;20082;-64
2023/10/16 00:48:37;;;;;;;1999.90;999.90;;;7.90;99.90;;;;;;5033484;28;20045;-80
2023/10/16 00:51:09;;;;;;;1999.90;999.90;;;7.90;99.90;;;;;;5021268;28;20033;-65
2023/10/16 00:53:40;;;;;;;1999.90;999.90;;;7.90;99.90;;;;;;5029390;28;20024;-64
2023/10/16 00:56:08;;;;;;;1999.90;999.90;;;7.80;99.90;;;;;;5036359;28;20038;-80
2023/10/16 00:58:38;;;;;;;1999.90;999.90;;;7.80;99.90;;;;;;5031429;28;20021;-65
2023/10/16 01:01:09;;;;;;;1999.90;999.90;;;7.80;99.90;;;;;;5035799;28;20026;-64
2023/10/16 01:03:37;;;;;;;1999.90;999.90;;;7.80;99.90;;;;;;5016494;28;20036;-66
2023/10/16 01:06:09;;;;;;;1999.90;999.90;;;7.80;99.90;;;;;;5031807;28;20030;-65
2023/10/16 01:08:37;;;;;;;1999.90;999.90;;;7.90;99.90;;;;;;5027176;28;20320;-65
2023/10/16 01:11:03;;;;;;;1999.90;999.90;;;7.90;99.90;;;;;;5030660;28;20053;-64
2023/10/16 01:13:29;;;;;;;1999.90;999.90;;;7.90;99.90;;;;;;5035513;28;20022;-80
2023/10/16 01:15:56;;;;;;;1999.90;999.90;;;7.90;99.90;;;;;;5034305;28;20034;-65
2023/10/16 01:18:23;;;;;;;1999.90;999.90;;;7.90;99.90;;;;;;5017940;28;20029;-64
2023/10/16 01:20:50;;;;;;;1999.90;999.90;;;8.00;99.90;;;;;;5034906;28;20033;-65
2023/10/16 01:23:20;;;;;;;1999.90;999.90;;;8.10;99.90;;;;;;5029299;28;20026;-64
2023/10/16 01:25:47;;;;;;;1999.90;999.90;;;8.10;99.90;;;;;;5030151;28;20097;-65
2023/10/16 01:28:16;;;;;;;1999.90;999.90;;;8.00;99.90;;;;;;5036325;28;20029;-65
2023/10/16 01:30:49;;;;;;;1999.90;999.90;;;8.00;99.90;;;;;;5035800;28;20043;-65
2023/10/16 01:33:16;;;;;;;1999.90;999.90;;;8.00;99.90;;;;;;5018835;28;20035;-65
2023/10/16 01:35:43;;;;;;;1999.90;999.90;;;8.00;99.90;;;;;;5033683;28;20035;-64
2023/10/16 01:38:16;;;;;;;1999.90;999.90;;;8.00;99.90;;;;;;5016799;28;20044;-64
2023/10/16 01:43:31;;;;;;;1999.90;999.90;;;8.00;99.90;;;;;;5033372;28;20072;-81
2023/10/16 01:46:02;;;;;;;1999.90;999.90;;;7.90;99.90;;;;;;5035792;28;20025;-65
2023/10/16 01:48:28;;;;;;;1999.90;999.90;;;7.90;99.90;;;;;;5033857;28;20069;-80
2023/10/16 01:50:54;;;;;;;1999.90;999.90;;;7.80;99.90;;;;;;5035256;28;20021;-64
2023/10/16 01:53:20;;;;;;;1999.90;999.90;;;7.80;99.90;;;;;;5033212;28;20038;-64
2023/10/16 01:55:56;;;;;;;1999.90;999.90;;;7.80;99.90;;;;;;5035295;28;20432;-64
2023/10/16 01:58:30;;;;;;;1999.90;999.90;;;7.90;99.90;;;;;;5023702;28;20037;-64
2023/10/16 02:00:56;;;;;;;1999.90;999.90;;;7.90;99.90;;;;;;5035421;28;20108;-64
2023/10/16 02:03:25;;;;;;;1999.90;999.90;;;7.90;99.90;;;;;;5033997;28;20072;-66
2023/10/16 02:05:51;;;;;;;1999.90;999.90;;;8.00;99.90;;;;;;5033402;28;20033;-64
2023/10/16 02:08:20;;;;;;;1999.90;999.90;;;8.00;99.90;;;;;;5034619;28;20060;-65
2023/10/16 02:10:48;;;;;;;1999.90;999.90;;;8.10;99.90;;;;;;5034100;28;20034;-65
2023/10/16 02:13:14;;;;;;;1999.90;999.90;;;8.10;99.90;;;;;;5031740;28;20302;-66
2023/10/16 02:15:40;;;;;;;1999.90;999.90;;;8.20;99.90;;;;;;5033020;28;21063;-66
2023/10/16 02:18:06;;;;;;;1999.90;999.90;;;8.20;99.90;;;;;;5034901;28;20455;-65
2023/10/16 02:20:36;;;;;;;1999.90;999.90;;;8.10;99.90;;;;;;5034290;28;20332;-66
2023/10/16 02:23:08;;;;;;;1999.90;999.90;;;8.10;99.90;;;;;;5025880;28;20037;-65
2023/10/16 02:25:35;;;;;;;1999.90;999.90;;;8.20;99.90;;;;;;5017590;28;20022;-66
2023/10/16 02:28:02;;;;;;;1999.90;999.90;;;8.20;99.90;;;;;;5029794;28;20322;-65
2023/10/16 02:30:28;;;;;;;1999.90;999.90;;;8.20;99.90;;;;;;5031572;28;20025;-80
2023/10/16 02:33:12;;;;;;;1999.90;999.90;;;8.20;99.90;;;;;;5026489;28;20475;-64
2023/10/16 02:35:40;;;;;;;1999.90;999.90;;;8.10;99.90;;;;;;5016877;28;20331;-65
2023/10/16 02:38:06;;;;;;;1999.90;999.90;;;8.10;99.90;;;;;;5033867;28;20033;-65
2023/10/16 02:40:32;;;;;;;1999.90;999.90;;;8.10;99.90;;;;;;5030088;28;20071;-72
2023/10/16 02:43:03;;;;;;;1999.90;999.90;;;8.20;99.90;;;;;;5033584;28;20036;-65
2023/10/16 02:45:33;;;;;;;1999.90;999.90;;;8.20;99.90;;;;;;5023230;28;20048;-82
2023/10/16 02:47:59;;;;;;;1999.90;999.90;;;8.20;99.90;;;;;;5032728;28;20065;-65
2023/10/16 02:50:26;;;;;;;1999.90;999.90;;;8.30;99.90;;;;;;5032315;28;20053;-64
2023/10/16 02:52:52;;;;;;;;;;;8.30;99.90;;;;;;5034476;28;20033;-65
2023/10/16 02:55:19;;;;;;;1999.90;999.90;;;8.20;99.90;;;;;;5032327;28;19913;-81
2023/10/16 02:57:44;;;;;;;1999.90;999.90;;;8.30;99.90;;;;;;5025540;28;20091;-65
2023/10/16 03:00:24;;;;;;;1999.90;999.90;;;8.30;99.90;;;;;;5020027;28;20033;-64
2023/10/16 03:02:51;;;;;;;1999.90;999.90;;;8.30;99.90;;;;;;5022809;28;20105;-65
2023/10/16 03:05:25;;;;;;;1999.90;999.90;;;8.30;99.90;;;;;;5033427;28;20079;-79
2023/10/16 03:07:52;;;;;;;1999.90;999.90;;;8.30;99.90;;;;;;5033307;28;20033;-65
2023/10/16 03:10:20;;;;;;;1999.90;999.90;;;8.30;99.90;;;;;;5032569;28;20038;-80
2023/10/16 03:12:49;;;;;;;1999.90;999.90;;;8.30;99.90;;;;;;5032931;28;20341;-81
2023/10/16 03:15:20;;;;;;;1999.90;999.90;;;8.20;99.90;;;;;;5016459;28;20329;-65
2023/10/16 03:17:54;;;;;;;1999.90;999.90;;;8.20;99.90;;;;;;5032150;28;20060;-65
2023/10/16 03:20:22;;;;;;;1999.90;999.90;;;8.30;99.90;;;;;;5033513;28;20025;-79
2023/10/16 03:22:50;;;;;;;1999.90;999.90;;;8.30;99.90;;;;;;5031229;28;20036;-65
2023/10/16 03:25:30;;;;;;;1999.90;999.90;;;8.30;99.90;;;;;;5035008;28;20083;-64
2023/10/16 03:27:57;;;;;;;1999.90;999.90;;;8.20;99.90;;;;;;5032803;28;20032;-64
2023/10/16 03:30:29;;;;;;;1999.90;999.90;;;8.30;99.90;;;;;;5032830;28;20428;-65
2023/10/16 03:32:55;;;;;;;1999.90;999.90;;;8.30;99.90;;;;;;5019448;28;20429;-65
2023/10/16 03:35:26;;;;;;;1999.90;999.90;;;8.30;99.90;;;;;;5033120;28;20179;-80
2023/10/16 03:37:53;;;;;;;1999.90;999.90;;;8.30;99.90;;;;;;5034089;28;20116;-65
2023/10/16 03:40:19;;;;;;;1999.90;999.90;;;8.30;99.90;;;;;;5033984;28;20026;-81
2023/10/16 03:42:46;;;;;;;1999.90;999.90;;;8.30;99.90;;;;;;5015140;28;20109;-65
2023/10/16 03:45:16;;;;;;;1999.90;999.90;;;8.30;99.90;;;;;;5032964;28;20022;-65
2023/10/16 03:47:43;;;;;;;1999.90;999.90;;;8.30;99.90;;;;;;5032260;28;20033;-65
2023/10/16 03:50:10;;;;;;;1999.90;999.90;;;8.30;99.90;;;;;;5033040;28;20103;-81
2023/10/16 03:52:36;;;;;;;1999.90;999.90;;;8.30;99.90;;;;;;5032704;28;20112;-65
2023/10/16 03:55:22;;;;;;;1999.90;999.90;;;8.40;99.90;;;;;;5033065;28;20104;-65
2023/10/16 03:57:47;;;;;;;1999.90;999.90;;;8.40;99.90;;;;;;5028627;28;20065;-65
2023/10/16 04:00:25;;;;;;;1999.90;999.90;;;8.40;99.90;;;;;;5015905;28;20422;-64
2023/10/16 04:02:51;;;;;;;1999.90;999.90;;;8.40;99.90;;;;;;5032163;28;20029;-65
2023/10/16 04:05:59;;;;;;;1999.90;999.90;;;8.50;99.90;;;;;;5032726;28;20029;-65
2023/10/16 04:08:09;;;;;;;1999.90;999.90;;;8.40;99.90;;;;;;5023854;28;20163;-65
2023/10/16 04:10:36;;;;;;;1999.90;999.90;;;8.40;99.90;;;;;;5033588;28;20022;-65
2023/10/16 04:13:02;;;;;;;1999.90;999.90;;;8.40;99.90;;;;;;5033270;28;20030;-65
2023/10/16 04:18:09;;;;;;;1999.90;999.90;;;8.40;99.90;;;;;;5032573;28;20070;-65
2023/10/16 04:20:43;;;;;;;1999.90;999.90;;;8.40;99.90;;;;;;5032831;28;20328;-65
2023/10/16 04:23:37;;;;;;;1999.90;999.90;;;8.30;99.90;;;;;;5022502;28;20032;-65
2023/10/16 04:29:20;;;;;;;1999.90;999.90;;;8.30;99.90;;;;;;5034055;28;20033;-65
2023/10/16 04:31:44;;;;;;;1999.90;999.90;;;8.30;99.90;;;;;;5032085;28;20030;-65
2023/10/16 04:36:53;;;;;;;1999.90;999.90;;;8.40;99.90;;;;;;5036646;28;20116;-65
2023/10/16 04:45:24;;;;;;;1999.90;999.90;;;8.50;99.90;;;;;;5036500;28;20039;-65
2023/10/16 04:50:30;;;;;;;1999.90;999.90;;;8.60;99.90;;;;;;5035903;28;20108;-79
2023/10/16 05:16:53;;;;;;;1999.90;999.90;;;8.40;99.90;;;;;;5046524;28;20043;-65
2023/10/16 05:22:02;;;;;;;1999.90;999.90;;;8.40;99.90;;;;;;5025671;28;20041;-65
2023/10/16 06:14:12;;;;;;;1999.90;999.90;;;8.60;99.90;;;;;;5024514;28;20032;-65
2023/10/16 06:16:43;;;;;;;1999.90;999.90;;;8.60;99.90;;;;;;5026447;28;20028;-65
2023/10/16 06:19:18;;;;;;;1999.90;999.90;;;8.50;99.90;;;;;;5032269;28;20330;-65
2023/10/16 06:21:49;;;;;;;1999.90;999.90;;;8.60;99.90;;;;;;5019491;28;20092;-65
2023/10/16 06:24:25;;;;;;;1999.90;999.90;;;8.60;99.90;;;;;;5024831;28;20040;-65
2023/10/16 06:26:53;;;;;;;1999.90;999.90;;;8.50;99.90;;;;;;5029140;28;20026;-65
2023/10/16 06:29:19;;;;;;;1999.90;999.90;;;8.50;99.90;;;;;;5040173;28;20025;-65
2023/10/16 06:31:53;;;;;;;1999.90;999.90;;;8.50;99.90;;;;;;5011343;28;20045;-65
2023/10/16 06:34:21;;;;;;;1999.90;999.90;;;8.60;99.90;;;;;;5027182;28;20064;-65
2023/10/16 06:36:47;;;;;;;1999.90;999.90;;;8.50;99.90;;;;;;5030461;28;20112;-65
2023/10/16 06:39:29;;;;;;;1999.90;999.90;;;8.50;99.90;;;;;;5032382;28;20122;-65
2023/10/16 06:41:55;;;;;;;1999.90;999.90;;;8.50;99.90;;;;;;5033462;28;20029;-65
2023/10/16 06:44:28;;;;;;;;;;;8.60;99.90;;;;;;5033875;28;20368;-65
2023/10/16 06:46:59;;;;;;;1999.90;999.90;;;8.60;99.90;;;;;;5029825;28;19909;-65
2023/10/16 06:49:35;;;;;;;1999.90;999.90;;;8.60;99.90;;;;;;5030184;28;20091;-65
2023/10/16 06:52:05;;;;;;;1999.90;999.90;;;8.70;99.90;;;;;;5015604;28;20053;-65
2023/10/16 06:54:40;;;;;;;1999.90;999.90;;;8.70;99.90;;;;;;5024155;28;20053;-79
2023/10/16 06:57:12;;;;;;;1999.90;999.90;;;8.70;99.90;;;;;;5021648;28;20026;-65
2023/10/16 06:59:45;;;;;;;1999.90;999.90;;;8.70;99.90;;;;;;5028319;28;20021;-65
2023/10/16 07:02:15;;;;;;;1999.90;999.90;;;8.70;99.90;;;;;;5035785;28;20026;-65
2023/10/16 07:04:47;;;;;;;1999.90;999.90;;;8.80;99.90;;;;;;5032354;28;20021;-65
2023/10/16 07:07:16;;;;;;;1999.90;999.90;;;8.80;99.90;;;;;;5029338;28;20480;-65
2023/10/16 07:09:54;;;;;;;1999.90;999.90;;;8.90;99.90;;;;;;5025967;28;20029;-65
2023/10/16 07:12:22;;;;;;;1999.90;999.90;;;8.90;99.90;;;;;;5009316;28;20029;-65
2023/10/16 07:14:55;;;;;;;1999.90;999.90;;;9.00;99.90;;;;;;5025748;28;20036;-66
2023/10/16 07:17:29;;;;;;;1999.90;999.90;;;9.10;99.90;;;;;;5021663;28;20056;-65
2023/10/16 07:19:59;;;;;;;1999.90;999.90;;;9.10;99.90;;;;;;5030796;28;20057;-65
2023/10/16 07:22:31;;;;;;;1999.90;999.90;;;9.30;99.90;;;;;;5034428;28;20029;-65
2023/10/16 07:25:10;;;;;;;1999.90;999.90;;;9.40;99.90;;;;;;5030305;28;20112;-65
2023/10/16 07:27:36;;;;;;;1999.90;999.90;;;9.40;99.90;;;;;;5033198;28;20025;-65
2023/10/16 07:30:21;;;;;;;1999.90;999.90;;;9.50;99.90;;;;;;5034474;28;20067;-65
2023/10/16 07:32:51;;;;;;;1999.90;999.90;;;9.60;99.90;;;;;;5028856;28;20420;-65
2023/10/16 07:35:18;;;;;;;1999.90;999.90;;;9.70;99.90;;;;;;5040942;28;20029;-77
2023/10/16 07:37:48;;;;;;;;;;;9.80;99.90;;;;;;5043398;28;20370;-65
2023/10/16 07:40:20;;;;;;;1999.90;999.90;;;9.90;99.90;;;;;;5029587;28;20354;-65
2023/10/16 07:42:46;;;;;;;1999.90;999.90;;;9.90;99.90;;;;;;5018826;28;20030;-65
2023/10/16 07:45:13;;;;;;;1999.90;999.90;;;10.00;99.90;;;;;;5016762;28;20475;-68
2023/10/16 07:47:39;;;;;;;1999.90;999.90;;;10.00;99.90;;;;;;5031773;28;20026;-65
2023/10/16 07:50:07;;;;;;;1999.90;999.90;;;10.10;99.90;;;;;;5023475;28;20064;-66
2023/10/16 07:52:34;;;;;;;1999.90;999.90;;;10.10;99.90;;;;;;5031699;28;20034;-66
2023/10/16 07:55:02;;;;;;;1999.90;999.90;;;10.20;99.90;;;;;;5025129;28;20022;-66
2023/10/16 07:57:28;;;;;;;1999.90;999.90;;;10.20;99.90;;;;;;5028409;28;20032;-78
2023/10/16 07:59:54;;;;;;;1999.90;999.90;;;10.20;99.90;;;;;;5029896;28;20113;-65
2023/10/16 08:02:21;;;;;;;1999.90;999.90;;;10.20;99.90;;;;;;5020742;28;20108;-79
2023/10/16 08:04:52;;;;;;;1999.90;999.90;;;10.20;99.90;;;;;;5027485;28;20058;-65
2023/10/16 08:07:18;;;;;;;1999.90;999.90;;;10.20;99.90;;;;;;5025611;28;20030;-66
2023/10/16 08:09:48;;;;;;;1999.90;999.90;;;10.20;99.90;;;;;;5026438;28;20475;-66
2023/10/16 08:14:59;;;;;;;1999.90;999.90;;;10.20;99.90;;;;;;5031899;28;20057;-78
2023/10/16 08:17:26;;;;;;;1999.90;999.90;;;10.30;99.90;;;;;;5041844;28;20045;-66
2023/10/16 08:19:52;;;;;;;1999.90;999.90;;;10.40;99.90;;;;;;5033866;28;20021;-66
2023/10/16 08:22:22;;;;;;;1999.90;999.90;;;10.60;99.90;;;;;;5031075;28;20025;-66
2023/10/16 08:25:04;;;;;;;1999.90;999.90;;;10.80;99.90;;;;;;5026206;28;20044;-66
2023/10/16 08:27:57;;;;;;;1999.90;999.90;;;11.10;99.90;;;;;;5029982;28;20022;-66
2023/10/16 08:33:12;;;;;;;1999.90;999.90;;;11.80;99.90;;;;;;5021638;28;20037;-79
2023/10/16 08:35:38;;;;;;;1999.90;999.90;;;12.10;99.90;;;;;;5033846;28;20328;-66
2023/10/16 08:38:13;;;;;;;1999.90;999.90;;;12.30;99.90;;;;;;5028776;28;20036;-66
2023/10/16 08:40:44;;;;;;;1999.90;999.90;;;12.40;99.90;;;;;;5027005;28;20021;-79
2023/10/16 08:43:16;;;;;;;1999.90;999.90;;;12.40;99.90;;;;;;5026444;28;20036;-66
2023/10/16 08:45:48;;;;;;;1999.90;999.90;;;12.50;99.90;;;;;;5030816;28;20029;-66
2023/10/16 08:48:18;;;;;;;1999.90;999.90;;;12.60;99.90;;;;;;5027678;28;20444;-66
2023/10/16 08:50:58;;;;;;;1999.90;999.90;;;12.60;99.90;;;;;;5021378;28;20022;-66
2023/10/16 08:53:30;;;;;;;1999.90;999.90;;;12.70;99.90;;;;;;5027781;28;20488;-66
2023/10/16 08:56:12;;;;;;;1999.90;999.90;;;12.80;99.90;;;;;;5039214;28;20028;-66
2023/10/16 08:58:46;;;;;;;1999.90;999.90;;;12.90;99.90;;;;;;5023497;28;20059;-66
2023/10/16 09:01:16;;;;;;;1999.90;999.90;;;12.90;99.90;;;;;;5018476;28;20325;-66
2023/10/16 09:04:05;;;;;;;1999.90;999.90;;;13.00;99.90;;;;;;5020236;28;20030;-66
2023/10/16 09:06:36;;;;;;;1999.90;999.90;;;13.10;99.90;;;;;;5049193;28;20437;-78
2023/10/16 09:09:12;;;;;;;1999.90;999.90;;;13.20;99.90;;;;;;5035993;28;20029;-66
2023/10/16 09:11:41;;;;;;;1999.90;999.90;;;13.30;99.90;;;;;;5035349;28;20026;-78
2023/10/16 09:14:11;;;;;;;1999.90;999.90;;;13.40;99.90;;;;;;5022196;28;20030;-66
2023/10/16 09:16:43;;;;;;;1999.90;999.90;;;13.40;99.90;;;;;;5031863;28;20109;-66
2023/10/16 09:19:13;;;;;;;1999.90;999.90;;;13.50;99.90;;;;;;5034841;28;20025;-79
2023/10/16 09:21:43;;;;;;;1999.90;999.90;;;13.60;99.90;;;;;;5031830;28;20075;-66
2023/10/16 09:24:12;;;;;;;1999.90;999.90;;;13.60;99.90;;;;;;5027033;28;20298;-66
2023/10/16 09:26:44;;;;;;;1999.90;999.90;;;13.50;99.90;;;;;;5026453;28;20060;-66
2023/10/16 09:29:20;;;;;;;1999.90;999.90;;;13.40;99.90;;;;;;5026659;28;20030;-66
2023/10/16 09:31:46;;;;;;;1999.90;999.90;;;13.40;99.90;;;;;;5028548;28;20079;-66
2023/10/16 09:34:14;;;;;;;;;;;13.40;99.90;;;;;;5035739;28;20021;-66
2023/10/16 09:36:41;;;;;;;1999.90;999.90;;;13.40;99.90;;;;;;5028676;28;20227;-67
2023/10/16 09:39:17;;;;;;;1999.90;999.90;;;13.40;99.90;;;;;;5035416;28;20033;-66
2023/10/16 09:41:46;;;;;;;1999.90;999.90;;;13.40;99.90;;;;;;5035319;28;20068;-66
2023/10/16 09:44:22;;;;;;;1999.90;999.90;;;13.40;99.90;;;;;;5024492;28;20073;-66
2023/10/16 09:46:52;;;;;;;1999.90;999.90;;;13.40;99.90;;;;;;5024532;28;20028;-75
2023/10/16 09:49:28;;;;;;;1999.90;999.90;;;13.40;99.90;;;;;;5033492;28;20463;-66
2023/10/16 09:52:03;;;;;;;1999.90;999.90;;;13.50;99.90;;;;;;5032294;28;20174;-66
2023/10/16 09:54:30;;;;;;;1999.90;999.90;;;13.50;99.90;;;;;;5032951;28;20376;-66
2023/10/16 09:56:59;;;;;;;1999.90;999.90;;;13.60;99.90;;;;;;5035513;28;20159;-66
2023/10/16 09:59:44;;;;;;;1999.90;999.90;;;13.60;99.90;;;;;;5032453;28;20079;-66
2023/10/16 10:02:18;;;;;;;1999.90;999.90;;;13.70;99.90;;;;;;5031273;28;20083;-66
2023/10/16 10:04:59;;;;;;;1999.90;999.90;;;13.80;99.90;;;;;;5046558;28;20025;-66
2023/10/16 10:07:36;;;;;;;1999.90;999.90;;;13.80;99.90;;;;;;5027458;28;20028;-66
2023/10/16 10:12:57;;;;;;;1999.90;999.90;;;13.90;99.90;;;;;;5029663;28;20071;-66
2023/10/16 10:15:35;;;;;;;1999.90;999.90;;;13.90;99.90;;;;;;5021489;28;20381;-66
2023/10/16 10:20:48;;;;;;;1999.90;999.90;;;13.90;99.90;;;;;;5031451;28;20109;-79
2023/10/16 10:23:15;;;;;;;1999.90;999.90;;;13.90;99.90;;;;;;5009432;28;20124;-67
2023/10/16 10:25:42;;;;;;;1999.90;999.90;;;13.80;99.90;;;;;;5026900;28;20020;-66
2023/10/16 10:28:32;;;;;;;1999.90;999.90;;;13.90;99.90;;;;;;5026927;28;20526;-78
2023/10/16 10:31:05;;;;;;;1999.90;999.90;;;13.90;99.90;;;;;;5029974;28;20121;-66
2023/10/16 10:33:52;;;;;;;1999.90;999.90;;;14.00;99.90;;;;;;5023510;28;20018;-66
2023/10/16 10:36:34;;;;;;;1999.90;999.90;;;13.90;99.90;;;;;;5023433;28;20036;-66
2023/10/16 10:39:21;;;;;;;1999.90;999.90;;;13.80;99.90;;;;;;5027475;28;20350;-66
2023/10/16 10:41:51;;;;;;;1999.90;999.90;;;13.70;99.90;;;;;;5024120;28;20068;-66
2023/10/16 10:44:21;;;;;;;1999.90;999.90;;;13.60;99.90;;;;;;5020527;28;20025;-66
2023/10/16 10:46:53;;;;;;;1999.90;999.90;;;13.50;99.90;;;;;;5018211;28;20022;-68
2023/10/16 10:49:35;;;;;;;1999.90;999.90;;;13.30;99.90;;;;;;5029068;28;20042;-66
2023/10/16 10:52:05;;;;;;;1999.90;999.90;;;13.20;99.90;;;;;;5022871;28;20045;-81
2023/10/16 10:54:31;;;;;;;1999.90;999.90;;;13.10;99.90;;;;;;5029970;28;20048;-66
2023/10/16 10:57:07;;;;;;;1999.90;999.90;;;13.10;99.90;;;;;;5010975;28;20036;-66
2023/10/16 10:59:40;;;;;;;1999.90;999.90;;;13.00;99.90;;;;;;5021708;28;20065;-67
2023/10/16 11:04:44;;;;;;;1999.90;999.90;;;13.00;99.90;;;;;;5025408;28;20021;-66
2023/10/16 11:07:24;;;;;;;1999.90;999.90;;;13.10;99.90;;;;;;5026076;28;20622;-66
2023/10/16 11:09:52;;;;;;;1999.90;999.90;;;13.00;99.90;;;;;;5023012;28;20321;-66
2023/10/16 11:12:24;;;;;;;1999.90;999.90;;;13.00;99.90;;;;;;5031215;28;20444;-66
2023/10/16 11:14:51;;;;;;;1999.90;999.90;;;13.00;99.90;;;;;;5029273;28;20018;-66
2023/10/16 11:17:33;;;;;;;;;;;13.00;99.90;;;;;;5026430;28;20026;-67
2023/10/16 11:20:27;;;;;;;1999.90;999.90;;;13.00;99.90;;;;;;5022097;28;19912;-66
2023/10/16 11:23:00;;;;;;;1999.90;999.90;;;13.00;99.90;;;;;;5029167;28;20068;-66
2023/10/16 11:25:29;;;;;;;1999.90;999.90;;;13.00;99.90;;;;;;5029637;28;20028;-66
2023/10/16 11:27:57;;;;;;;1999.90;999.90;;;13.00;99.90;;;;;;5035538;28;20024;-66
2023/10/16 11:30:26;;;;;;;1999.90;999.90;;;13.00;99.90;;;;;;5035918;28;20029;-78
2023/10/16 11:32:54;;;;;;;1999.90;999.90;;;13.00;99.90;;;;;;5026694;28;20377;-66
2023/10/16 11:35:21;;;;;;;1999.90;999.90;;;13.00;99.90;;;;;;5033382;28;20413;-65
2023/10/16 11:40:48;;;;;;;1999.90;999.90;;;13.00;99.90;;;;;;4973531;28;20050;-66
2023/10/16 11:43:19;;;;;;;1999.90;999.90;;;13.10;99.90;;;;;;4983740;28;20071;-78
2023/10/16 11:45:53;;;;;;;1999.90;999.90;;;13.10;99.90;;;;;;4964599;28;20085;-66
2023/10/16 11:51:15;;;;;;;1999.90;999.90;;;13.20;99.90;;;;;;4977196;28;20042;-66
2023/10/16 11:53:43;;;;;;;1999.90;999.90;;;13.20;99.90;;;;;;4973130;28;20046;-66
2023/10/16 11:56:13;;;;;;;1999.90;999.90;;;13.30;99.90;;;;;;4968219;28;20039;-66
2023/10/16 11:58:40;;;;;;;1999.90;999.90;;;13.30;99.90;;;;;;4961641;28;20058;-66
2023/10/16 12:01:09;;;;;;;1999.90;999.90;;;13.30;99.90;;;;;;4970273;28;20027;-66
2023/10/16 12:03:38;;;;;;;1999.90;999.90;;;13.40;99.90;;;;;;4970826;28;20118;-65
2023/10/16 12:06:13;;;;;;;1999.90;999.90;;;13.40;99.90;;;;;;4978088;28;20027;-66
2023/10/16 12:08:41;;;;;;;1999.90;999.90;;;13.40;99.90;;;;;;4979456;28;20046;-65
2023/10/16 12:11:13;;;;;;;1999.90;999.90;;;13.30;99.90;;;;;;4983953;28;20047;-65
2023/10/16 12:13:41;;;;;;;1999.90;999.90;;;13.40;99.90;;;;;;4978012;28;20435;-65
2023/10/16 12:16:07;;;;;;;1999.90;999.90;;;13.40;99.90;;;;;;5004715;28;20046;-66
2023/10/16 12:18:33;;;;;;;1999.90;999.90;;;13.40;99.90;;;;;;5016506;28;20112;-66
2023/10/16 12:21:05;;;;;;;1999.90;999.90;;;13.40;99.90;;;;;;5034927;28;20061;-66
2023/10/16 12:23:32;;;;;;;1999.90;999.90;;;13.40;99.90;;;;;;5034736;28;20036;-66
2023/10/16 12:26:00;;;;;;;1999.90;999.90;;;13.50;99.90;;;;;;5031810;28;20029;-80
2023/10/16 12:28:26;;;;;;;1999.90;999.90;;;13.50;99.90;;;;;;5031843;28;20021;-66
2023/10/16 12:30:56;;;;;;;1999.90;999.90;;;13.50;99.90;;;;;;5038471;28;20079;-66
2023/10/16 12:33:25;;;;;;;1999.90;999.90;;;13.60;99.90;;;;;;5023900;28;20033;-67
2023/10/16 12:35:57;;;;;;;1999.90;999.90;;;13.60;99.90;;;;;;5037570;28;20051;-66
2023/10/16 12:38:26;;;;;;;1999.90;999.90;;;13.60;99.90;;;;;;5030251;28;20029;-66
2023/10/16 12:40:59;;;;;;;1999.90;999.90;;;13.60;99.90;;;;;;5030429;28;20033;-80
2023/10/16 12:43:28;;;;;;;1999.90;999.90;;;13.60;99.90;;;;;;5035537;28;20018;-66
2023/10/16 12:45:57;;;;;;;1999.90;999.90;;;13.70;99.90;;;;;;5031020;28;20021;-66
2023/10/16 12:48:28;;;;;;;1999.90;999.90;;;13.70;99.90;;;;;;5024174;28;20042;-67
2023/10/16 12:50:59;;;;;;;1999.90;999.90;;;13.70;99.90;;;;;;5033491;28;20017;-66
2023/10/16 12:53:31;;;;;;;1999.90;999.90;;;13.70;99.90;;;;;;5041292;28;20629;-66
2023/10/16 12:55:58;;;;;;;1999.90;999.90;;;13.70;99.90;;;;;;5030275;28;20030;-66
2023/10/16 12:58:26;;;;;;;1999.90;999.90;;;13.70;99.90;;;;;;5025476;28;20013;-66
2023/10/16 13:00:52;;;;;;;1999.90;999.90;;;13.70;99.90;;;;;;5027963;28;20295;-66
2023/10/16 13:03:20;;;;;;;1999.90;999.90;;;13.70;99.90;;;;;;5033605;28;20112;-80
2023/10/16 13:05:48;;;;;;;1999.90;999.90;;;13.60;99.90;;;;;;5027422;28;20295;-66
2023/10/16 13:08:17;;;;;;;1999.90;999.90;;;13.60;99.90;;;;;;5030124;28;20025;-67
2023/10/16 13:10:48;;;;;;;1999.90;999.90;;;13.50;99.90;;;;;;5038917;28;20032;-66
2023/10/16 13:13:15;;;;;;;1999.90;999.90;;;13.50;99.90;;;;;;5027131;28;20032;-66
2023/10/16 13:15:45;;;;;;;1999.90;999.90;;;13.50;99.90;;;;;;5024418;28;20032;-66
2023/10/16 13:18:12;;;;;;;1999.90;999.90;;;13.50;99.90;;;;;;5025536;28;20025;-66
2023/10/16 13:20:39;;;;;;;1999.90;999.90;;;13.60;99.90;;;;;;5027294;28;20022;-66
2023/10/16 13:23:06;;;;;;;1999.90;999.90;;;13.60;99.90;;;;;;5015652;28;20076;-66
2023/10/16 13:25:34;;;;;;;;;;;13.60;99.90;;;;;;5031160;28;20730;-80
2023/10/16 13:28:00;;;;;;;1999.90;999.90;;;13.60;99.90;;;;;;5032696;28;19909;-66
2023/10/16 13:30:31;;;;;;;1999.90;999.90;;;13.60;99.90;;;;;;5029184;28;20037;-66
2023/10/16 13:33:00;;;;;;;1999.90;999.90;;;13.50;99.90;;;;;;5027205;28;20123;-66
2023/10/16 13:35:26;;;;;;;1999.90;999.90;;;13.60;99.90;;;;;;5028185;28;20320;-66
2023/10/16 13:37:52;;;;;;;1999.90;999.90;;;13.60;99.90;;;;;;5024363;28;20034;-66
2023/10/16 13:40:22;;;;;;;1999.90;999.90;;;13.70;99.90;;;;;;5038311;28;20045;-66
2023/10/16 13:42:54;;;;;;;1999.90;999.90;;;13.70;99.90;;;;;;5033982;28;20320;-66
2023/10/16 13:45:21;;;;;;;1999.90;999.90;;;13.70;99.90;;;;;;5034181;28;20014;-66
2023/10/16 13:47:49;;;;;;;1999.90;999.90;;;13.60;99.90;;;;;;5032172;28;20321;-66
2023/10/16 13:50:27;;;;;;;1999.90;999.90;;;13.60;99.90;;;;;;5032687;28;20834;-70
2023/10/16 13:52:54;;;;;;;1999.90;999.90;;;13.60;99.90;;;;;;5033171;28;20126;-66
2023/10/16 13:55:23;;;;;;;1999.90;999.90;;;13.60;99.90;;;;;;5031753;28;20056;-66
2023/10/16 13:57:54;;;;;;;1999.90;999.90;;;13.60;99.90;;;;;;5035246;28;20033;-66
2023/10/16 14:00:29;;;;;;;1999.90;999.90;;;13.50;99.90;;;;;;5030518;28;20021;-66
2023/10/16 14:03:08;;;;;;;1999.90;999.90;;;13.50;99.90;;;;;;5027490;28;20080;-66
2023/10/16 14:05:41;;;;;;;1999.90;999.90;;;13.40;99.90;;;;;;5027166;28;20083;-66
2023/10/16 14:08:14;;;;;;;1999.90;999.90;;;13.40;99.90;;;;;;5031500;28;20105;-66
2023/10/16 14:10:49;;;;;;;1999.90;999.90;;;13.30;99.90;;;;;;5039978;28;20380;-65
2023/10/16 14:13:26;;;;;;;1999.90;999.90;;;13.30;99.90;;;;;;5043538;28;20036;-66
2023/10/16 14:16:01;;;;;;;1999.90;999.90;;;13.30;99.90;;;;;;5023286;28;20045;-75
2023/10/16 14:18:29;;;;;;;1999.90;999.90;;;13.20;99.90;;;;;;5035946;28;20328;-79
2023/10/16 14:20:56;;;;;;;1999.90;999.90;;;13.20;99.90;;;;;;5028515;28;20033;-65